createdAt,value
2023-05-22T00:00:39.040Z,7.70
2023-05-22T00:01:38.899Z,9.40
2023-05-22T00:02:39.250Z,7.40
2023-05-22T00:03:38.849Z,7.80
2023-05-22T00:04:38.925Z,8.20
2023-05-22T00:05:38.923Z,10.10
2023-05-22T00:06:38.801Z,8.40
2023-05-22T00:07:38.819Z,8.50
2023-05-22T00:08:38.774Z,9.00
2023-05-22T00:09:38.771Z,8.90
2023-05-22T00:10:38.983Z,8.80
2023-05-22T00:11:38.745Z,7.60
2023-05-22T00:12:38.749Z,8.80
2023-05-22T00:13:38.730Z,7.60
2023-05-22T00:14:38.729Z,7.40
2023-05-22T00:15:38.712Z,9.20
2023-05-22T00:16:38.715Z,8.90
2023-05-22T00:17:38.706Z,7.70
2023-05-22T00:18:38.668Z,7.70
2023-05-22T00:19:38.767Z,8.30
2023-05-22T00:20:39.405Z,8.20
2023-05-22T00:21:38.649Z,9.90
2023-05-22T00:22:38.932Z,8.70
2023-05-22T00:23:38.626Z,7.50
2023-05-22T00:24:38.623Z,9.90
2023-05-22T00:25:38.582Z,9.00
2023-05-22T00:26:38.573Z,8.40
2023-05-22T00:27:38.562Z,9.00
2023-05-22T00:28:38.542Z,7.70
2023-05-22T00:29:38.537Z,10.20
2023-05-22T00:30:38.901Z,8.70
2023-05-22T00:31:38.511Z,10.30
2023-05-22T00:32:38.502Z,7.90
2023-05-22T00:33:38.482Z,7.90
2023-05-22T00:34:38.589Z,8.70
2023-05-22T00:35:38.466Z,8.00
2023-05-22T00:36:38.455Z,8.10
2023-05-22T00:37:38.459Z,9.10
2023-05-22T00:38:38.450Z,10.00
2023-05-22T00:39:38.428Z,7.60
2023-05-22T00:40:38.553Z,8.50
2023-05-22T00:41:38.393Z,9.10
2023-05-22T00:42:38.436Z,7.80
2023-05-22T00:43:38.371Z,8.00
2023-05-22T00:44:38.368Z,7.50
2023-05-22T00:45:38.350Z,10.00
2023-05-22T00:46:38.382Z,8.40
2023-05-22T00:47:38.385Z,7.90
2023-05-22T00:48:38.316Z,7.50
2023-05-22T00:49:38.328Z,7.50
2023-05-22T00:50:38.682Z,9.30
2023-05-22T00:51:38.290Z,9.60
2023-05-22T00:52:38.263Z,9.20
2023-05-22T00:53:38.277Z,8.30
2023-05-22T00:54:38.238Z,9.00
2023-05-22T00:55:38.236Z,8.50
2023-05-22T00:56:38.227Z,8.50
2023-05-22T00:57:38.206Z,8.60
2023-05-22T00:58:38.187Z,8.00
2023-05-22T00:59:38.184Z,8.00
2023-05-22T01:00:38.400Z,8.50
2023-05-22T01:01:38.194Z,9.40
2023-05-22T01:02:38.235Z,9.20
2023-05-22T01:03:38.209Z,9.80
2023-05-22T01:04:38.118Z,9.30
2023-05-22T01:05:38.111Z,8.30
2023-05-22T01:06:38.121Z,8.10
2023-05-22T01:07:38.094Z,7.70
2023-05-22T01:08:38.071Z,6.80
2023-05-22T01:09:38.084Z,8.40
2023-05-22T01:10:38.333Z,8.90
2023-05-22T01:11:38.044Z,9.20
2023-05-22T01:12:38.049Z,7.40
2023-05-22T01:13:38.028Z,9.10
2023-05-22T01:14:38.004Z,8.50
2023-05-22T01:15:37.993Z,8.40
2023-05-22T01:16:38.033Z,7.70
2023-05-22T01:17:38.040Z,10.30
2023-05-22T01:18:37.975Z,7.60
2023-05-22T01:19:37.961Z,9.50
2023-05-22T01:20:38.159Z,9.80
2023-05-22T01:21:37.923Z,7.90
2023-05-22T01:22:37.906Z,8.00
2023-05-22T01:23:37.926Z,8.00
2023-05-22T01:24:37.891Z,8.30
2023-05-22T01:25:37.902Z,8.40
2023-05-22T01:26:37.895Z,7.60
2023-05-22T01:27:37.855Z,8.20
2023-05-22T01:28:37.853Z,7.70
2023-05-22T01:29:37.846Z,7.30
2023-05-22T01:30:37.996Z,7.20
2023-05-22T01:31:37.811Z,7.10
2023-05-22T01:32:37.863Z,9.20
2023-05-22T01:33:37.949Z,8.10
2023-05-22T01:34:37.775Z,8.90
2023-05-22T01:35:37.772Z,8.00
2023-05-22T01:36:37.761Z,8.40
2023-05-22T01:37:37.767Z,7.60
2023-05-22T01:38:37.750Z,8.70
2023-05-22T01:39:37.736Z,7.70
2023-05-22T01:40:37.955Z,8.10
2023-05-22T01:41:37.733Z,11.20
2023-05-22T01:42:37.686Z,8.60
2023-05-22T01:43:37.694Z,8.90
2023-05-22T01:44:37.687Z,10.20
2023-05-22T01:45:37.685Z,9.00
2023-05-22T01:46:37.644Z,7.70
2023-05-22T01:47:37.749Z,8.80
2023-05-22T01:48:37.649Z,9.10
2023-05-22T01:49:37.643Z,10.30
2023-05-22T01:50:38.131Z,11.70
2023-05-22T01:51:37.600Z,14.10
2023-05-22T01:52:37.624Z,11.90
2023-05-22T01:53:37.571Z,12.40
2023-05-22T01:54:37.555Z,12.90
2023-05-22T01:55:37.552Z,11.70
2023-05-22T01:56:37.555Z,14.70
2023-05-22T01:57:37.582Z,12.40
2023-05-22T01:58:37.641Z,13.30
2023-05-22T01:59:37.508Z,12.70
2023-05-22T02:00:37.571Z,12.30
2023-05-22T02:01:37.559Z,11.70
2023-05-22T02:02:38.659Z,13.80
2023-05-22T02:03:37.541Z,11.90
2023-05-22T02:04:37.466Z,11.90
2023-05-22T02:05:37.439Z,11.70
2023-05-22T02:06:37.419Z,11.60
2023-05-22T02:07:37.437Z,14.90
2023-05-22T02:08:37.396Z,13.10
2023-05-22T02:09:37.401Z,13.40
2023-05-22T02:10:37.696Z,10.90
2023-05-22T02:11:37.371Z,13.20
2023-05-22T02:12:37.372Z,12.10
2023-05-22T02:13:37.374Z,12.10
2023-05-22T02:14:37.328Z,11.30
2023-05-22T02:15:37.333Z,10.90
2023-05-22T02:16:37.321Z,11.20
2023-05-22T02:17:37.351Z,9.90
2023-05-22T02:18:37.286Z,11.80
2023-05-22T02:19:37.302Z,13.10
2023-05-22T02:20:37.419Z,12.00
2023-05-22T02:21:37.266Z,10.80
2023-05-22T02:22:37.266Z,11.20
2023-05-22T02:23:37.234Z,10.60
2023-05-22T02:24:37.254Z,10.60
2023-05-22T02:25:37.237Z,11.90
2023-05-22T02:26:37.204Z,12.70
2023-05-22T02:27:37.188Z,13.30
2023-05-22T02:28:37.171Z,9.70
2023-05-22T02:29:38.151Z,11.00
2023-05-22T02:30:37.357Z,11.90
2023-05-22T02:31:37.183Z,11.90
2023-05-22T02:32:37.125Z,10.30
2023-05-22T02:33:37.123Z,10.60
2023-05-22T02:34:37.099Z,9.50
2023-05-22T02:35:37.118Z,10.50
2023-05-22T02:36:37.080Z,9.80
2023-05-22T02:37:37.073Z,11.10
2023-05-22T02:38:37.049Z,9.30
2023-05-22T02:39:37.051Z,8.90
2023-05-22T02:40:37.220Z,10.90
2023-05-22T02:41:37.032Z,10.70
2023-05-22T02:42:37.014Z,8.80
2023-05-22T02:43:37.021Z,10.40
2023-05-22T02:44:37.012Z,10.50
2023-05-22T02:45:36.996Z,9.40
2023-05-22T02:46:36.980Z,11.00
2023-05-22T02:47:37.013Z,9.20
2023-05-22T02:48:36.954Z,7.90
2023-05-22T02:49:36.938Z,10.40
2023-05-22T02:50:37.237Z,6.80
2023-05-22T02:51:36.944Z,7.70
2023-05-22T02:52:36.894Z,9.30
2023-05-22T02:53:36.884Z,11.70
2023-05-22T02:54:36.870Z,9.30
2023-05-22T02:55:36.872Z,7.70
2023-05-22T02:56:36.843Z,9.70
2023-05-22T02:57:36.857Z,8.30
2023-05-22T02:58:36.824Z,8.10
2023-05-22T02:59:36.870Z,8.60
2023-05-22T03:00:36.906Z,11.00
2023-05-22T03:01:36.977Z,10.20
2023-05-22T03:02:37.014Z,9.00
2023-05-22T03:03:36.916Z,8.70
2023-05-22T03:04:36.761Z,9.30
2023-05-22T03:05:36.770Z,9.50
2023-05-22T03:06:36.726Z,8.80
2023-05-22T03:07:36.731Z,9.40
2023-05-22T03:08:36.702Z,8.50
2023-05-22T03:09:36.716Z,9.80
2023-05-22T03:10:37.008Z,10.20
2023-05-22T03:11:36.687Z,10.10
2023-05-22T03:12:36.657Z,8.80
2023-05-22T03:13:36.654Z,10.20
2023-05-22T03:14:36.651Z,9.10
2023-05-22T03:15:36.632Z,8.90
2023-05-22T03:16:36.725Z,10.00
2023-05-22T03:17:36.669Z,9.80
2023-05-22T03:18:36.615Z,10.20
2023-05-22T03:19:36.614Z,9.40
2023-05-22T03:20:36.926Z,8.70
2023-05-22T03:21:36.619Z,9.10
2023-05-22T03:22:36.546Z,9.30
2023-05-22T03:23:36.536Z,9.90
2023-05-22T03:24:36.542Z,8.90
2023-05-22T03:25:36.525Z,8.60
2023-05-22T03:26:36.498Z,10.60
2023-05-22T03:27:36.518Z,9.40
2023-05-22T03:28:36.564Z,8.30
2023-05-22T03:29:36.481Z,8.70
2023-05-22T03:30:36.536Z,8.50
2023-05-22T03:31:36.452Z,10.00
2023-05-22T03:32:36.468Z,10.50
2023-05-22T03:33:36.487Z,9.20
2023-05-22T03:34:36.409Z,9.30
2023-05-22T03:35:36.419Z,11.50
2023-05-22T03:36:36.391Z,10.20
2023-05-22T03:37:36.402Z,8.20
2023-05-22T03:38:36.359Z,9.00
2023-05-22T03:39:36.487Z,10.40
2023-05-22T03:40:36.423Z,9.20
2023-05-22T03:41:36.360Z,10.70
2023-05-22T03:42:36.327Z,10.20
2023-05-22T03:43:37.744Z,10.70
2023-05-22T03:44:36.307Z,13.00
2023-05-22T03:45:36.341Z,10.10
2023-05-22T03:46:36.290Z,12.40
2023-05-22T03:47:36.318Z,9.80
2023-05-22T03:48:36.252Z,12.60
2023-05-22T03:49:36.295Z,11.30
2023-05-22T03:50:36.233Z,8.50
2023-05-22T03:51:36.249Z,9.60
2023-05-22T03:52:36.205Z,9.70
2023-05-22T03:53:36.200Z,8.00
2023-05-22T03:54:36.213Z,10.70
2023-05-22T03:55:36.234Z,8.50
2023-05-22T03:56:36.161Z,8.20
2023-05-22T03:57:36.176Z,9.00
2023-05-22T03:58:36.135Z,7.90
2023-05-22T03:59:36.145Z,11.50
2023-05-22T04:00:36.125Z,8.50
2023-05-22T04:01:36.112Z,7.60
2023-05-22T04:02:36.143Z,10.50
2023-05-22T04:03:36.165Z,7.50
2023-05-22T04:04:36.100Z,9.50
2023-05-22T04:05:36.102Z,9.10
2023-05-22T04:06:36.036Z,8.00
2023-05-22T04:07:36.050Z,8.70
2023-05-22T04:08:36.032Z,8.00
2023-05-22T04:09:36.028Z,11.00
2023-05-22T04:10:36.062Z,11.80
2023-05-22T04:11:35.986Z,8.80
2023-05-22T04:12:35.978Z,7.70
2023-05-22T04:13:35.991Z,10.80
2023-05-22T04:14:35.943Z,9.90
2023-05-22T04:15:35.960Z,8.20
2023-05-22T04:16:35.940Z,11.20
2023-05-22T04:17:35.976Z,11.40
2023-05-22T04:18:35.911Z,10.50
2023-05-22T04:19:35.913Z,9.90
2023-05-22T04:20:35.879Z,9.20
2023-05-22T04:21:35.940Z,14.00
2023-05-22T04:22:35.880Z,9.40
2023-05-22T04:23:35.853Z,11.90
2023-05-22T04:24:35.842Z,11.60
2023-05-22T04:25:35.824Z,12.10
2023-05-22T04:26:35.833Z,12.40
2023-05-22T04:27:35.814Z,11.70
2023-05-22T04:28:35.791Z,13.90
2023-05-22T04:29:35.783Z,16.80
2023-05-22T04:30:35.768Z,15.50
2023-05-22T04:31:35.847Z,17.00
2023-05-22T04:32:35.795Z,14.90
2023-05-22T04:33:35.725Z,14.40
2023-05-22T04:34:35.719Z,16.00
2023-05-22T04:35:35.722Z,18.70
2023-05-22T04:36:35.714Z,15.50
2023-05-22T04:37:35.735Z,14.10
2023-05-22T04:38:35.682Z,14.50
2023-05-22T04:39:35.657Z,11.80
2023-05-22T04:40:35.672Z,16.90
2023-05-22T04:41:35.637Z,11.10
2023-05-22T04:42:35.628Z,11.00
2023-05-22T04:43:35.638Z,11.80
2023-05-22T04:44:35.626Z,11.40
2023-05-22T04:45:35.645Z,12.80
2023-05-22T04:46:35.683Z,11.80
2023-05-22T04:47:35.639Z,10.00
2023-05-22T04:48:35.571Z,12.50
2023-05-22T04:49:35.604Z,11.30
2023-05-22T04:50:35.548Z,14.00
2023-05-22T04:51:35.536Z,13.60
2023-05-22T04:52:35.644Z,12.30
2023-05-22T04:53:35.560Z,14.20
2023-05-22T04:54:35.498Z,12.90
2023-05-22T04:55:35.519Z,17.00
2023-05-22T04:56:37.173Z,19.90
2023-05-22T04:57:35.507Z,18.10
2023-05-22T04:58:35.482Z,15.50
2023-05-22T04:59:35.455Z,14.70
2023-05-22T05:00:35.552Z,8.00
2023-05-22T05:01:35.477Z,7.60
2023-05-22T05:02:35.488Z,7.40
2023-05-22T05:03:35.455Z,9.80
2023-05-22T05:04:35.414Z,8.20
2023-05-22T05:05:35.426Z,9.30
2023-05-22T05:06:35.365Z,11.80
2023-05-22T05:07:35.346Z,7.60
2023-05-22T05:08:35.425Z,7.10
2023-05-22T05:09:35.406Z,6.20
2023-05-22T05:10:35.353Z,11.00
2023-05-22T05:11:35.324Z,8.00
2023-05-22T05:12:35.295Z,6.50
2023-05-22T05:13:35.297Z,21.90
2023-05-22T05:14:35.269Z,8.10
2023-05-22T05:15:35.278Z,8.70
2023-05-22T05:16:35.280Z,7.90
2023-05-22T05:17:35.303Z,7.90
2023-05-22T05:18:35.251Z,7.40
2023-05-22T05:19:36.984Z,7.60
2023-05-22T05:20:35.673Z,8.50
2023-05-22T05:21:35.205Z,7.40
2023-05-22T05:22:35.182Z,7.50
2023-05-22T05:23:35.170Z,7.20
2023-05-22T05:24:37.018Z,7.80
2023-05-22T05:25:35.173Z,10.00
2023-05-22T05:26:35.139Z,6.40
2023-05-22T05:27:35.111Z,6.50
2023-05-22T05:28:35.120Z,7.20
2023-05-22T05:29:35.123Z,7.80
2023-05-22T05:30:35.089Z,6.70
2023-05-22T05:31:35.117Z,7.50
2023-05-22T05:32:35.112Z,6.00
2023-05-22T05:33:35.047Z,7.00
2023-05-22T05:34:35.065Z,6.50
2023-05-22T05:35:35.027Z,6.90
2023-05-22T05:36:35.032Z,8.20
2023-05-22T05:37:34.996Z,5.90
2023-05-22T05:38:34.990Z,5.90
2023-05-22T05:39:35.005Z,7.10
2023-05-22T05:40:34.971Z,7.60
2023-05-22T05:41:34.988Z,5.50
2023-05-22T05:42:34.952Z,7.90
2023-05-22T05:43:34.968Z,6.50
2023-05-22T05:44:34.972Z,6.10
2023-05-22T05:45:34.914Z,5.70
2023-05-22T05:46:34.996Z,7.40
2023-05-22T05:47:35.050Z,7.10
2023-05-22T05:48:34.882Z,6.20
2023-05-22T05:49:35.858Z,6.90
2023-05-22T05:50:34.879Z,5.40
2023-05-22T05:51:34.835Z,5.70
2023-05-22T05:52:34.839Z,6.20
2023-05-22T05:53:34.815Z,7.10
2023-05-22T05:54:34.851Z,6.90
2023-05-22T05:55:34.871Z,4.70
2023-05-22T05:56:34.802Z,4.80
2023-05-22T05:57:34.791Z,5.80
2023-05-22T05:58:34.787Z,5.10
2023-05-22T05:59:34.800Z,5.20
2023-05-22T06:00:34.773Z,6.70
2023-05-22T06:01:34.738Z,6.70
2023-05-22T06:02:34.807Z,6.70
2023-05-22T06:03:34.775Z,4.20
2023-05-22T06:04:34.700Z,4.60
2023-05-22T06:05:34.727Z,6.20
2023-05-22T06:06:34.702Z,4.80
2023-05-22T06:07:34.672Z,4.80
2023-05-22T06:08:34.686Z,6.10
2023-05-22T06:09:34.649Z,5.80
2023-05-22T06:10:34.653Z,4.90
2023-05-22T06:11:34.610Z,7.10
2023-05-22T06:12:34.607Z,4.70
2023-05-22T06:13:34.617Z,5.10
2023-05-22T06:14:34.608Z,7.10
2023-05-22T06:15:34.575Z,6.50
2023-05-22T06:16:34.778Z,6.10
2023-05-22T06:17:34.575Z,4.30
2023-05-22T06:18:34.562Z,4.40
2023-05-22T06:19:34.543Z,4.20
2023-05-22T06:20:34.531Z,6.60
2023-05-22T06:21:34.501Z,4.50
2023-05-22T06:22:34.518Z,6.10
2023-05-22T06:23:34.471Z,6.10
2023-05-22T06:24:34.486Z,6.20
2023-05-22T06:25:34.460Z,5.80
2023-05-22T06:26:34.447Z,5.90
2023-05-22T06:27:34.431Z,5.40
2023-05-22T06:28:34.419Z,5.30
2023-05-22T06:29:34.558Z,6.10
2023-05-22T06:30:43.292Z,5.60
2023-05-22T06:31:35.487Z,5.40
2023-05-22T06:32:34.526Z,4.80
2023-05-22T06:33:34.635Z,5.60
2023-05-22T06:34:34.356Z,4.80
2023-05-22T06:35:34.368Z,5.80
2023-05-22T06:36:34.353Z,6.80
2023-05-22T06:37:34.325Z,7.30
2023-05-22T06:38:34.312Z,6.20
2023-05-22T06:39:34.302Z,5.30
2023-05-22T06:40:34.287Z,6.40
2023-05-22T06:41:34.270Z,6.40
2023-05-22T06:42:34.291Z,7.30
2023-05-22T06:43:34.247Z,5.20
2023-05-22T06:44:34.245Z,5.70
2023-05-22T06:45:34.269Z,5.30
2023-05-22T06:46:34.299Z,5.20
2023-05-22T06:47:34.250Z,6.00
2023-05-22T06:48:34.204Z,6.90
2023-05-22T06:49:34.199Z,5.70
2023-05-22T06:50:34.171Z,5.00
2023-05-22T06:51:34.184Z,5.40
2023-05-22T06:52:34.168Z,5.70
2023-05-22T06:53:34.143Z,6.00
2023-05-22T06:54:34.159Z,4.70
2023-05-22T06:55:34.178Z,6.30
2023-05-22T06:56:34.128Z,4.70
2023-05-22T06:57:34.089Z,5.60
2023-05-22T06:58:34.095Z,4.50
2023-05-22T06:59:34.074Z,4.90
2023-05-22T07:00:34.062Z,3.80
2023-05-22T07:01:34.915Z,6.30
2023-05-22T07:02:34.072Z,4.30
2023-05-22T07:03:34.024Z,4.10
2023-05-22T07:04:34.014Z,4.20
2023-05-22T07:05:34.033Z,4.80
2023-05-22T07:06:34.025Z,4.30
2023-05-22T07:07:33.988Z,3.90
2023-05-22T07:08:33.970Z,4.30
2023-05-22T07:09:33.961Z,6.70
2023-05-22T07:10:33.948Z,4.10
2023-05-22T07:11:33.930Z,6.50
2023-05-22T07:12:33.954Z,4.50
2023-05-22T07:13:33.903Z,4.30
2023-05-22T07:14:33.924Z,4.50
2023-05-22T07:15:33.887Z,6.60
2023-05-22T07:16:33.907Z,4.20
2023-05-22T07:17:33.994Z,4.40
2023-05-22T07:18:33.853Z,4.20
2023-05-22T07:19:33.867Z,6.30
2023-05-22T07:20:33.851Z,4.10
2023-05-22T07:21:33.813Z,3.90
2023-05-22T07:22:33.833Z,5.40
2023-05-22T07:23:33.793Z,4.40
2023-05-22T07:24:33.788Z,4.30
2023-05-22T07:25:33.767Z,5.10
2023-05-22T07:26:34.742Z,4.30
2023-05-22T07:27:33.783Z,4.50
2023-05-22T07:28:33.745Z,4.70
2023-05-22T07:29:33.727Z,3.90
2023-05-22T07:30:33.747Z,7.10
2023-05-22T07:31:33.784Z,4.10
2023-05-22T07:32:33.745Z,4.40
2023-05-22T07:33:33.776Z,3.80
2023-05-22T07:34:33.678Z,5.00
2023-05-22T07:35:33.664Z,4.90
2023-05-22T07:36:33.650Z,4.50
2023-05-22T07:37:33.645Z,4.60
2023-05-22T07:38:33.652Z,4.30
2023-05-22T07:39:33.619Z,5.00
2023-05-22T07:40:33.606Z,4.70
2023-05-22T07:41:33.612Z,4.90
2023-05-22T07:42:33.594Z,6.00
2023-05-22T07:43:33.584Z,3.80
2023-05-22T07:44:33.576Z,4.10
2023-05-22T07:45:33.561Z,3.90
2023-05-22T07:46:33.589Z,3.90
2023-05-22T07:47:33.600Z,4.10
2023-05-22T07:48:33.522Z,5.80
2023-05-22T07:49:33.510Z,7.60
2023-05-22T07:50:33.512Z,3.90
2023-05-22T07:51:33.494Z,3.90
2023-05-22T07:52:33.491Z,4.10
2023-05-22T07:53:33.463Z,4.10
2023-05-22T07:54:33.486Z,4.20
2023-05-22T07:55:33.459Z,6.10
2023-05-22T07:56:33.426Z,4.50
2023-05-22T07:57:33.412Z,4.10
2023-05-22T07:58:33.403Z,5.10
2023-05-22T07:59:33.381Z,4.60
2023-05-22T08:00:33.414Z,4.60
2023-05-22T08:01:33.368Z,4.70
2023-05-22T08:02:33.455Z,4.30
2023-05-22T08:03:33.456Z,4.30
2023-05-22T08:04:33.512Z,4.20
2023-05-22T08:05:33.522Z,4.80
2023-05-22T08:06:33.314Z,4.20
2023-05-22T08:07:33.294Z,6.10
2023-05-22T08:08:33.329Z,4.30
2023-05-22T08:09:33.280Z,4.20
2023-05-22T08:10:46.253Z,4.20
2023-05-22T08:11:34.273Z,3.80
2023-05-22T08:12:33.251Z,4.80
2023-05-22T08:13:33.256Z,4.30
2023-05-22T08:14:33.224Z,3.90
2023-05-22T08:15:33.198Z,4.20
2023-05-22T08:16:33.217Z,4.30
2023-05-22T08:17:33.324Z,4.70
2023-05-22T08:18:33.199Z,4.40
2023-05-22T08:19:33.206Z,6.70
2023-05-22T08:20:33.199Z,7.50
2023-05-22T08:21:33.228Z,4.50
2023-05-22T08:22:33.132Z,5.00
2023-05-22T08:23:33.136Z,5.50
2023-05-22T08:24:33.144Z,4.10
2023-05-22T08:25:33.096Z,4.30
2023-05-22T08:26:33.090Z,3.90
2023-05-22T08:27:33.069Z,4.00
2023-05-22T08:28:33.059Z,5.50
2023-05-22T08:29:33.062Z,3.90
2023-05-22T08:30:33.064Z,5.40
2023-05-22T08:31:33.050Z,4.70
2023-05-22T08:32:33.022Z,4.40
2023-05-22T08:33:33.023Z,4.50
2023-05-22T08:34:32.996Z,5.20
2023-05-22T08:35:33.021Z,4.40
2023-05-22T08:36:32.990Z,4.30
2023-05-22T08:37:33.004Z,4.30
2023-05-22T08:38:34.143Z,5.80
2023-05-22T08:39:32.963Z,4.10
2023-05-22T08:40:32.924Z,4.30
2023-05-22T08:41:32.916Z,4.50
2023-05-22T08:42:32.920Z,5.90
2023-05-22T08:43:32.895Z,4.30
2023-05-22T08:44:32.880Z,3.80
2023-05-22T08:45:32.873Z,4.60
2023-05-22T08:46:32.893Z,5.80
2023-05-22T08:47:32.905Z,6.20
2023-05-22T08:48:32.867Z,3.90
2023-05-22T08:49:32.826Z,4.10
2023-05-22T08:50:32.808Z,5.50
2023-05-22T08:51:32.830Z,4.40
2023-05-22T08:52:32.886Z,5.90
2023-05-22T08:53:33.092Z,5.30
2023-05-22T08:54:32.782Z,6.20
2023-05-22T08:55:32.777Z,7.70
2023-05-22T08:56:35.096Z,4.40
2023-05-22T08:57:32.745Z,6.60
2023-05-22T08:58:32.766Z,8.10
2023-05-22T08:59:32.718Z,4.90
2023-05-22T09:00:32.702Z,5.90
2023-05-22T09:01:32.760Z,9.90
2023-05-22T09:02:32.709Z,6.40
2023-05-22T09:03:32.808Z,8.00
2023-05-22T09:04:32.662Z,6.40
2023-05-22T09:05:32.650Z,11.60
2023-05-22T09:06:32.669Z,5.70
2023-05-22T09:07:32.651Z,6.20
2023-05-22T09:08:32.618Z,7.10
2023-05-22T09:09:32.737Z,5.50
2023-05-22T09:10:32.617Z,4.60
2023-05-22T09:11:32.592Z,5.20
2023-05-22T09:12:32.595Z,4.40
2023-05-22T09:13:32.576Z,6.50
2023-05-22T09:14:32.575Z,5.20
2023-05-22T09:15:32.648Z,5.40
2023-05-22T09:16:32.623Z,6.60
2023-05-22T09:17:32.597Z,5.00
2023-05-22T09:18:32.539Z,6.50
2023-05-22T09:19:32.611Z,4.70
2023-05-22T09:20:32.516Z,5.00
2023-05-22T09:21:32.495Z,6.80
2023-05-22T09:22:32.554Z,10.90
2023-05-22T09:23:32.465Z,4.80
2023-05-22T09:24:32.516Z,3.90
2023-05-22T09:25:32.740Z,5.40
2023-05-22T09:26:32.452Z,4.90
2023-05-22T09:27:32.440Z,5.10
2023-05-22T09:28:32.444Z,5.60
2023-05-22T09:29:32.425Z,4.60
2023-05-22T09:30:32.387Z,5.00
2023-05-22T09:31:32.452Z,5.60
2023-05-22T09:32:32.449Z,5.10
2023-05-22T09:33:32.378Z,6.10
2023-05-22T09:34:32.354Z,3.40
2023-05-22T09:35:32.341Z,3.70
2023-05-22T09:36:32.330Z,4.70
2023-05-22T09:37:32.361Z,6.00
2023-05-22T09:38:32.305Z,5.30
2023-05-22T09:39:32.298Z,8.00
2023-05-22T09:40:32.310Z,5.60
2023-05-22T09:41:32.437Z,5.30
2023-05-22T09:42:32.282Z,5.20
2023-05-22T09:43:32.263Z,4.60
2023-05-22T09:44:32.263Z,5.10
2023-05-22T09:45:32.236Z,5.70
2023-05-22T09:46:32.282Z,6.30
2023-05-22T09:47:32.292Z,5.50
2023-05-22T09:48:32.209Z,4.40
2023-05-22T09:49:32.193Z,4.80
2023-05-22T09:50:32.179Z,5.40
2023-05-22T09:51:32.203Z,4.00
2023-05-22T09:52:32.158Z,4.80
2023-05-22T09:53:32.155Z,5.90
2023-05-22T09:54:32.136Z,4.60
2023-05-22T09:55:32.178Z,3.80
2023-05-22T09:56:39.075Z,4.20
2023-05-22T09:57:33.138Z,7.10
2023-05-22T09:58:32.089Z,6.60
2023-05-22T09:59:32.103Z,6.40
2023-05-22T10:00:32.078Z,4.20
2023-05-22T10:01:32.102Z,5.80
2023-05-22T10:02:32.246Z,4.80
2023-05-22T10:03:32.051Z,4.60
2023-05-22T10:04:32.067Z,3.80
2023-05-22T10:05:32.014Z,5.00
2023-05-22T10:06:32.029Z,5.50
2023-05-22T10:07:31.998Z,5.90
2023-05-22T10:08:31.981Z,4.50
2023-05-22T10:09:31.993Z,4.00
2023-05-22T10:10:31.966Z,5.20
2023-05-22T10:11:31.960Z,4.00
2023-05-22T10:12:31.950Z,4.10
2023-05-22T10:13:32.058Z,4.90
2023-05-22T10:14:31.937Z,4.60
2023-05-22T10:15:32.439Z,4.50
2023-05-22T10:16:31.935Z,4.30
2023-05-22T10:17:31.958Z,5.30
2023-05-22T10:18:31.892Z,4.40
2023-05-22T10:19:31.967Z,5.10
2023-05-22T10:20:31.906Z,5.60
2023-05-22T10:21:31.879Z,3.60
2023-05-22T10:22:31.853Z,3.60
2023-05-22T10:23:31.826Z,3.40
2023-05-22T10:24:31.925Z,3.90
2023-05-22T10:25:31.798Z,3.80
2023-05-22T10:26:31.783Z,6.50
2023-05-22T10:27:31.800Z,4.30
2023-05-22T10:28:31.778Z,4.50
2023-05-22T10:29:31.869Z,3.50
2023-05-22T10:30:31.747Z,5.10
2023-05-22T10:31:31.732Z,6.00
2023-05-22T10:32:31.802Z,3.80
2023-05-22T10:33:31.808Z,4.90
2023-05-22T10:34:31.839Z,4.20
2023-05-22T10:35:31.698Z,5.90
2023-05-22T10:36:31.667Z,5.30
2023-05-22T10:37:31.689Z,4.80
2023-05-22T10:38:31.649Z,4.10
2023-05-22T10:39:31.644Z,4.20
2023-05-22T10:40:31.641Z,3.70
2023-05-22T10:41:31.662Z,5.00
2023-05-22T10:42:31.613Z,8.60
2023-05-22T10:43:31.598Z,5.10
2023-05-22T10:44:31.587Z,3.70
2023-05-22T10:45:31.925Z,4.90
2023-05-22T10:46:31.715Z,3.90
2023-05-22T10:47:31.594Z,4.60
2023-05-22T10:48:31.691Z,4.50
2023-05-22T10:49:31.560Z,6.20
2023-05-22T10:50:31.541Z,4.90
2023-05-22T10:51:31.511Z,4.70
2023-05-22T10:52:31.515Z,4.60
2023-05-22T10:53:31.498Z,4.10
2023-05-22T10:54:31.497Z,4.20
2023-05-22T10:55:31.505Z,3.80
2023-05-22T10:56:31.480Z,6.30
2023-05-22T10:57:31.454Z,5.30
2023-05-22T10:58:31.453Z,4.30
2023-05-22T10:59:31.425Z,5.50
2023-05-22T11:00:31.494Z,4.20
2023-05-22T11:01:31.583Z,4.70
2023-05-22T11:02:31.533Z,3.90
2023-05-22T11:03:31.492Z,5.30
2023-05-22T11:04:31.398Z,5.30
2023-05-22T11:05:31.386Z,5.60
2023-05-22T11:06:31.343Z,4.20
2023-05-22T11:07:31.340Z,3.90
2023-05-22T11:08:31.324Z,4.70
2023-05-22T11:09:31.333Z,3.90
2023-05-22T11:10:31.301Z,3.80
2023-05-22T11:11:31.302Z,4.20
2023-05-22T11:12:31.393Z,3.90
2023-05-22T11:13:31.288Z,4.40
2023-05-22T11:14:31.294Z,4.30
2023-05-22T11:15:31.258Z,4.10
2023-05-22T11:16:31.269Z,3.90
2023-05-22T11:17:31.452Z,4.50
2023-05-22T11:18:31.208Z,5.80
2023-05-22T11:19:31.220Z,5.90
2023-05-22T11:20:31.205Z,3.90
2023-05-22T11:21:31.182Z,4.70
2023-05-22T11:22:31.201Z,4.40
2023-05-22T11:23:31.159Z,6.70
2023-05-22T11:24:31.141Z,5.20
2023-05-22T11:25:31.153Z,6.60
2023-05-22T11:26:31.125Z,4.50
2023-05-22T11:27:31.112Z,4.20
2023-05-22T11:28:31.122Z,4.80
2023-05-22T11:29:31.095Z,3.90
2023-05-22T11:30:31.071Z,3.80
2023-05-22T11:31:31.111Z,5.40
2023-05-22T11:32:31.103Z,6.00
2023-05-22T11:33:31.161Z,4.30
2023-05-22T11:34:31.034Z,4.30
2023-05-22T11:35:31.039Z,3.40
2023-05-22T11:36:31.005Z,4.90
2023-05-22T11:37:30.995Z,3.60
2023-05-22T11:38:30.990Z,4.30
2023-05-22T11:39:30.980Z,3.70
2023-05-22T11:40:30.992Z,4.70
2023-05-22T11:41:33.268Z,4.60
2023-05-22T11:42:30.944Z,5.20
2023-05-22T11:43:30.924Z,4.90
2023-05-22T11:44:30.913Z,3.90
2023-05-22T11:45:30.940Z,3.60
2023-05-22T11:46:30.912Z,6.00
2023-05-22T11:47:30.899Z,9.00
2023-05-22T11:48:30.866Z,5.90
2023-05-22T11:49:30.982Z,6.10
2023-05-22T11:50:41.761Z,8.50
2023-05-22T11:51:31.841Z,3.70
2023-05-22T11:52:30.847Z,4.00
2023-05-22T11:53:30.816Z,3.60
2023-05-22T11:54:30.848Z,3.80
2023-05-22T11:55:30.801Z,4.90
2023-05-22T11:56:33.257Z,4.80
2023-05-22T11:57:30.768Z,4.00
2023-05-22T11:58:30.766Z,4.40
2023-05-22T11:59:30.754Z,4.40
2023-05-22T12:00:30.795Z,5.20
2023-05-22T12:01:30.731Z,4.70
2023-05-22T12:02:30.833Z,8.00
2023-05-22T12:03:30.913Z,3.30
2023-05-22T12:04:30.692Z,3.50
2023-05-22T12:05:30.856Z,4.70
2023-05-22T12:06:30.755Z,3.90
2023-05-22T12:07:30.734Z,4.40
2023-05-22T12:08:30.724Z,4.20
2023-05-22T12:09:30.710Z,4.40
2023-05-22T12:10:30.637Z,3.90
2023-05-22T12:11:30.622Z,4.70
2023-05-22T12:12:30.605Z,4.70
2023-05-22T12:13:30.618Z,3.80
2023-05-22T12:14:30.576Z,3.70
2023-05-22T12:15:30.583Z,4.40
2023-05-22T12:16:30.611Z,3.60
2023-05-22T12:17:30.613Z,6.80
2023-05-22T12:18:30.566Z,5.90
2023-05-22T12:19:30.658Z,6.20
2023-05-22T12:20:31.337Z,4.70
2023-05-22T12:21:30.618Z,4.10
2023-05-22T12:22:30.507Z,4.00
2023-05-22T12:23:30.503Z,3.30
2023-05-22T12:24:30.489Z,3.60
2023-05-22T12:25:30.470Z,6.00
2023-05-22T12:26:30.455Z,4.60
2023-05-22T12:27:32.636Z,3.80
2023-05-22T12:28:30.423Z,4.80
2023-05-22T12:29:30.464Z,5.70
2023-05-22T12:30:30.432Z,4.20
2023-05-22T12:31:30.447Z,3.50
2023-05-22T12:32:30.503Z,4.10
2023-05-22T12:33:30.376Z,4.30
2023-05-22T12:34:30.383Z,5.20
2023-05-22T12:35:30.407Z,3.50
2023-05-22T12:36:30.469Z,4.80
2023-05-22T12:37:30.491Z,5.90
2023-05-22T12:38:30.334Z,7.80
2023-05-22T12:39:30.325Z,4.10
2023-05-22T12:40:30.326Z,5.00
2023-05-22T12:41:30.293Z,4.30
2023-05-22T12:42:30.291Z,3.80
2023-05-22T12:43:30.274Z,5.70
2023-05-22T12:44:30.265Z,7.60
2023-05-22T12:45:30.269Z,4.20
2023-05-22T12:46:30.284Z,3.90
2023-05-22T12:47:30.287Z,4.80
2023-05-22T12:48:30.223Z,8.70
2023-05-22T12:49:30.198Z,4.20
2023-05-22T12:50:30.287Z,5.20
2023-05-22T12:51:30.206Z,7.40
2023-05-22T12:52:30.228Z,6.80
2023-05-22T12:53:30.325Z,4.00
2023-05-22T12:54:30.159Z,3.60
2023-05-22T12:55:30.133Z,4.30
2023-05-22T12:56:30.192Z,10.20
2023-05-22T12:57:30.118Z,3.70
2023-05-22T12:58:30.127Z,6.50
2023-05-22T12:59:30.112Z,5.00
2023-05-22T13:00:30.112Z,3.50
2023-05-22T13:01:30.144Z,6.90
2023-05-22T13:02:30.149Z,4.20
2023-05-22T13:03:30.063Z,4.60
2023-05-22T13:04:30.101Z,4.70
2023-05-22T13:05:30.168Z,4.20
2023-05-22T13:06:30.592Z,3.90
2023-05-22T13:07:30.002Z,5.30
2023-05-22T13:08:30.062Z,4.80
2023-05-22T13:09:30.100Z,6.90
2023-05-22T13:10:30.044Z,6.10
2023-05-22T13:11:30.014Z,3.90
2023-05-22T13:12:29.964Z,5.90
2023-05-22T13:13:29.945Z,4.30